Portada
METAR-TAF:

METAR-TAF

Aeropuertos :

Aeropuerto Internacional Aba Tenna Dejazmach Yilma

Dire Dawa, Etiopía

latitud: 09-36N, longitud: 041-52E, altitud: 1146 m

METAR: falta

Hora: 10:40 (07:40 UTC)

Pronóstico

El informe se hizo hace 16 horas y 10 minutos, a las 15:30 UTC
Pronóstico válido del 30 a las 18 UTC al 31 a las 24 UTC
Viento 8 kt del noroeste
Visibilidad 10 km o más
Nubes dispersas a una altura de 2800 ft
Nubes dispersas a una altura de 9000 ft
Temporalmente
del 30 a las 18 UTC al 30 a las 23 UTC
Viento 6 kt del sur
Cielo nuboso a una altura de 2800 ft

TAF: HADR 301530Z 3018/3124 32008KT 9999 SCT028 SCT090 TEMPO 3018/3023 17006KT BKN028

Observaciones y pronósticos meteorológicos de más de 4000 aeropuertos (mensajes METAR y TAF).

Los puntos amarillos y rojos representan las estaciones disponibles.

Ponga el ratón en el punto deseado para ver el nombre de la estación.

Haga clic para ver las observaciones y los pronósticos meteorológicos.

Para cambiar el mapa : haga clic en los botones verdes con una cruz de color negro para hacer un zoom, en el botón verde con un guión para alejar o en las flechas verdes para mapas adyacentes.


METAR-TAF: